Saratoga, CA (95070)

12:08 PM PST on December 08, 2016 (GMT -0800)
Scotland Dr. near Glasgow Dr. | | Change Station

Elev 375 ft 37.27 °N, 122.02 °W | Updated 2 seconds ago

Overcast
Overcast
60.3 °F
Feels Like 60.3 °F
N
4.3
Wind Variable Wind from SE
Gusts 5.8 mph

Today
High -- | Low -- °F
--% Chance of Precip.
Yesterday
High -- | Low -- °F
Precip. -- in
Pressure 30.12 in
Visibility 10.0 miles
Clouds Few 900 ft
Mostly Cloudy 2700 ft
Overcast 10000 ft
Dew Point 56 °F
Humidity 85%
Rainfall 0.13 in
Snow Depth Not available.
7:10 AM 4:50 PM
Waxing Gibbous, 66% visible
METAR KSJC 081953Z 12014KT 10SM FEW009 BKN027 OVC100 16/11 A3013 RMK AO2 RAE12 SLP200 P0000 T01610111
Pressure 30.12 in
Visibility 10.0 miles
Clouds Few 900 ft
Mostly Cloudy 2700 ft
Overcast 10000 ft
Dew Point 56 °F
Humidity 85%
Rainfall 0.13 in
Snow Depth Not available.
7:10 AM 4:50 PM
Waxing Gibbous, 66% visible
METAR KSJC 081953Z 12014KT 10SM FEW009 BKN027 OVC100 16/11 A3013 RMK AO2 RAE12 SLP200 P0000 T01610111

10-Day Weather Forecast

Almanac

Astronomy

Dec. 08, 2016 Rise Set
Actual Time
Civil Twilight
Nautical Twilight
Astronomical Twilight
Moon
Length of Visible Light
Length of Day
Tomorrow will be .
, % of the Moon is Illuminated

Today's Extremes

State Highs State Lows

Community

WunderPhotos

Upload Photos

1,956,277 photos uploaded!

WunderBlog® & News

Nearby

Air Quality

  Air Quality AQ Index Pollutant
Not available.

Snow Depth

Station Depth Elevation

Earthquake Activity

City Distance Mag. Time & Date
Minimum magnitude displayed is 2.5.

Coastal Water Temperatures

Place Temperature

Stations

Nearby Weather Stations

Station Location Temp. Windchill Dew Point Humidity Wind Precip. Elev Updated Type
                   

Watches & Warnings

There are currently no watches in effect.